Aérodrome :
LOGIN :

S'inscrire | Disclaimer

   EN    FR    IT 

 










Légende :    VFR   VFR Marginal   IFR   IFR Intensif   IFR Très Intensif
Visi : 
Plafond : 
>= 8 km
>= 3000ft
5 à 8 km
1000 à 3000 ft
1500m à 5 km
500 à 1000 ft
800 à 1500m
200 à 500 ft
< 800m
< 200 ft
Symboles :   Orages  Brouillard  Fortes neiges  Fortes précipitations  Vent > 20 kt
SIGMETs :   Divers  Orages  Givrage  Turbulence  Onde Orograph.  Cendres Volcan.






- Altitude de l'aérodrome : 826 ft
- Code IATA : CWC


UKLN - Chernivtsi International

DERNIER METAR :
  • 151800Z 15001MPS CAVOK 07/M01 Q1014 R15/09//70 NOSIG

METARs EXPIRÉS :
  • 151730Z 18002MPS CAVOK 08/M01 Q1014 R15/09//70 NOSIG
  • 151700Z 20001MPS CAVOK 08/M01 Q1014 R15/09//70 NOSIG
  • 151630Z 21002MPS CAVOK 09/M01 Q1014 R15/09//70 NOSIG
  • 151600Z 21002MPS 160V240 CAVOK 08/00 Q1014 R15/09//70 NOSIG
  • 151530Z VRB01MPS CAVOK 08/00 Q1014 R15/09//70 NOSIG

TAF TAF UKLN
Valide du 15 à 18h jusqu'au 16 à 03h UTC


151707Z 1518/1603 18004MPS 9999 SCT040 TX07/1518Z TN02/1603Z
TEMPO 1518/1603 VRB01MPS 2100 BR BKN010



MET'MAP, la Météo Aéronautique d'un coup d'oeil ! - Copyright ORBIFLY Décembre 2007 - Disclaimer

ORBIFLY MET'MAP TEAM :

Programmation & Développement : Alexandra Zaïnal
Sur une idée originale de : Baudouin d'Aumeries
Assistance à la programmation : Marc-Olivier Méhu
Soutien technique & logistique : Manuel Goepfert

Contact : metmap@orbifly.com




SOURCES & CREDITS :

   NOAA